Waltham, United Kingdom
Current Conditions -  °F | °C
As of 1:50 AM on Friday 21 Nov 2014 (Local Time) from EGXS Reporting Station
Broken Clouds Broken Clouds  
Wind Chill: 44°   Ceiling: 3400
Heat Index: 46°   Visibility: 4mi
Dew Point: 43°   Wind: 6mph
Humidity: 87%   Direction: 160°SSE
Pressure: 30.24"   Gusts: NA
Location:  53.52°N, 0.1°W
Report Text: EGXS 210150Z AUTO 16005KT 7000 // FEW021/// BKN034/// 08/06 Q1024
Loading
Personal Weather Stations






























Interactive Weather Map New forecast layout! Learn more

10-Day Weather Forecast

Advertisements
Track Severe Weather on mobile